sensor_id;sensor_type;location;lat;lon;timestamp;P1;durP1;ratioP1;P2;durP2;ratioP2
61590;SDS011;71994;52.410;-1.966;2023-09-08T00:00:19;6.88;;;6.03;;
61590;SDS011;71994;52.410;-1.966;2023-09-08T00:03:28;7.13;;;6.40;;
61590;SDS011;71994;52.410;-1.966;2023-09-08T00:06:34;6.50;;;5.73;;
61590;SDS011;71994;52.410;-1.966;2023-09-08T00:09:40;6.78;;;6.10;;
61590;SDS011;71994;52.410;-1.966;2023-09-08T00:12:46;6.85;;;6.15;;
61590;SDS011;71994;52.410;-1.966;2023-09-08T00:15:53;7.53;;;6.32;;
61590;SDS011;71994;52.410;-1.966;2023-09-08T00:19:02;7.40;;;5.68;;
61590;SDS011;71994;52.410;-1.966;2023-09-08T00:22:08;6.57;;;5.97;;
61590;SDS011;71994;52.410;-1.966;2023-09-08T00:25:14;7.32;;;5.97;;
61590;SDS011;71994;52.410;-1.966;2023-09-08T00:28:21;7.60;;;6.45;;
61590;SDS011;71994;52.410;-1.966;2023-09-08T00:31:27;6.78;;;6.07;;
61590;SDS011;71994;52.410;-1.966;2023-09-08T00:34:37;6.43;;;5.82;;
61590;SDS011;71994;52.410;-1.966;2023-09-08T00:37:44;6.65;;;5.95;;
61590;SDS011;71994;52.410;-1.966;2023-09-08T00:40:51;6.93;;;6.20;;
61590;SDS011;71994;52.410;-1.966;2023-09-08T00:43:57;6.50;;;5.80;;
61590;SDS011;71994;52.410;-1.966;2023-09-08T00:47:05;6.40;;;5.80;;
61590;SDS011;71994;52.410;-1.966;2023-09-08T00:50:14;6.75;;;6.05;;
61590;SDS011;71994;52.410;-1.966;2023-09-08T00:53:20;7.40;;;6.30;;
61590;SDS011;71994;52.410;-1.966;2023-09-08T00:56:27;7.15;;;6.30;;
61590;SDS011;71994;52.410;-1.966;2023-09-08T00:59:37;7.10;;;6.20;;
61590;SDS011;71994;52.410;-1.966;2023-09-08T01:02:43;6.85;;;5.97;;
61590;SDS011;71994;52.410;-1.966;2023-09-08T01:05:54;6.65;;;6.05;;
61590;SDS011;71994;52.410;-1.966;2023-09-08T01:09:04;7.75;;;6.00;;
61590;SDS011;71994;52.410;-1.966;2023-09-08T01:12:10;6.72;;;6.13;;
61590;SDS011;71994;52.410;-1.966;2023-09-08T01:15:16;6.43;;;5.82;;
61590;SDS011;71994;52.410;-1.966;2023-09-08T01:18:23;6.75;;;6.05;;
61590;SDS011;71994;52.410;-1.966;2023-09-08T01:21:42;7.15;;;6.25;;
61590;SDS011;71994;52.410;-1.966;2023-09-08T01:25:12;7.57;;;6.20;;
61590;SDS011;71994;52.410;-1.966;2023-09-08T01:28:24;6.88;;;6.07;;
61590;SDS011;71994;52.410;-1.966;2023-09-08T01:31:31;6.22;;;5.63;;
61590;SDS011;71994;52.410;-1.966;2023-09-08T01:34:37;7.28;;;6.03;;
61590;SDS011;71994;52.410;-1.966;2023-09-08T01:37:45;6.72;;;6.07;;
61590;SDS011;71994;52.410;-1.966;2023-09-08T01:40:55;6.13;;;5.53;;
61590;SDS011;71994;52.410;-1.966;2023-09-08T01:44:04;6.80;;;5.47;;
61590;SDS011;71994;52.410;-1.966;2023-09-08T01:47:12;6.43;;;5.82;;
61590;SDS011;71994;52.410;-1.966;2023-09-08T01:50:19;7.15;;;6.00;;
61590;SDS011;71994;52.410;-1.966;2023-09-08T01:53:27;6.18;;;5.57;;
61590;SDS011;71994;52.410;-1.966;2023-09-08T01:56:36;6.63;;;5.93;;
61590;SDS011;71994;52.410;-1.966;2023-09-08T01:59:42;6.70;;;6.10;;
61590;SDS011;71994;52.410;-1.966;2023-09-08T02:02:50;6.25;;;5.65;;
61590;SDS011;71994;52.410;-1.966;2023-09-08T02:05:56;6.28;;;5.68;;
61590;SDS011;71994;52.410;-1.966;2023-09-08T02:09:03;6.50;;;5.78;;
61590;SDS011;71994;52.410;-1.966;2023-09-08T02:12:12;6.00;;;5.40;;
61590;SDS011;71994;52.410;-1.966;2023-09-08T02:15:18;7.23;;;5.70;;
61590;SDS011;71994;52.410;-1.966;2023-09-08T02:18:25;6.53;;;5.90;;
61590;SDS011;71994;52.410;-1.966;2023-09-08T02:21:31;7.07;;;5.95;;
61590;SDS011;71994;52.410;-1.966;2023-09-08T02:24:38;5.90;;;5.30;;
61590;SDS011;71994;52.410;-1.966;2023-09-08T02:27:47;8.02;;;5.70;;
61590;SDS011;71994;52.410;-1.966;2023-09-08T02:30:53;6.60;;;5.68;;
61590;SDS011;71994;52.410;-1.966;2023-09-08T02:34:00;6.18;;;5.47;;
61590;SDS011;71994;52.410;-1.966;2023-09-08T02:37:07;5.97;;;5.38;;
61590;SDS011;71994;52.410;-1.966;2023-09-08T02:40:13;6.28;;;5.68;;
61590;SDS011;71994;52.410;-1.966;2023-09-08T02:43:22;6.50;;;5.80;;
61590;SDS011;71994;52.410;-1.966;2023-09-08T02:46:29;6.53;;;5.93;;
61590;SDS011;71994;52.410;-1.966;2023-09-08T02:49:36;6.03;;;5.50;;
61590;SDS011;71994;52.410;-1.966;2023-09-08T02:52:42;6.22;;;5.50;;
61590;SDS011;71994;52.410;-1.966;2023-09-08T02:55:49;6.40;;;5.57;;
61590;SDS011;71994;52.410;-1.966;2023-09-08T02:58:58;6.20;;;5.60;;
61590;SDS011;71994;52.410;-1.966;2023-09-08T03:02:07;6.05;;;5.43;;
61590;SDS011;71994;52.410;-1.966;2023-09-08T03:05:17;6.57;;;5.53;;
61590;SDS011;71994;52.410;-1.966;2023-09-08T03:08:23;6.05;;;5.45;;
61590;SDS011;71994;52.410;-1.966;2023-09-08T03:11:29;6.00;;;5.40;;
61590;SDS011;71994;52.410;-1.966;2023-09-08T03:14:38;6.22;;;5.53;;
61590;SDS011;71994;52.410;-1.966;2023-09-08T03:17:45;6.15;;;5.50;;
61590;SDS011;71994;52.410;-1.966;2023-09-08T03:20:52;6.03;;;5.28;;
61590;SDS011;71994;52.410;-1.966;2023-09-08T03:23:58;6.32;;;5.47;;
61590;SDS011;71994;52.410;-1.966;2023-09-08T03:27:05;6.43;;;5.68;;
61590;SDS011;71994;52.410;-1.966;2023-09-08T03:30:14;5.72;;;5.18;;
61590;SDS011;71994;52.410;-1.966;2023-09-08T03:33:21;7.43;;;5.90;;
61590;SDS011;71994;52.410;-1.966;2023-09-08T03:36:30;5.60;;;5.07;;
61590;SDS011;71994;52.410;-1.966;2023-09-08T03:39:38;6.30;;;5.65;;
61590;SDS011;71994;52.410;-1.966;2023-09-08T03:42:46;5.88;;;5.28;;
61590;SDS011;71994;52.410;-1.966;2023-09-08T03:45:56;5.95;;;5.35;;
61590;SDS011;71994;52.410;-1.966;2023-09-08T03:49:02;5.65;;;5.15;;
61590;SDS011;71994;52.410;-1.966;2023-09-08T03:52:10;6.00;;;5.40;;
61590;SDS011;71994;52.410;-1.966;2023-09-08T03:55:16;6.20;;;5.60;;
61590;SDS011;71994;52.410;-1.966;2023-09-08T03:58:23;5.68;;;5.18;;
61590;SDS011;71994;52.410;-1.966;2023-09-08T04:01:32;5.82;;;5.20;;
61590;SDS011;71994;52.410;-1.966;2023-09-08T04:04:38;6.25;;;5.65;;
61590;SDS011;71994;52.410;-1.966;2023-09-08T04:07:44;5.97;;;5.32;;
61590;SDS011;71994;52.410;-1.966;2023-09-08T04:10:51;5.82;;;5.32;;
61590;SDS011;71994;52.410;-1.966;2023-09-08T04:13:57;6.20;;;5.60;;
61590;SDS011;71994;52.410;-1.966;2023-09-08T04:17:07;6.60;;;5.50;;
61590;SDS011;71994;52.410;-1.966;2023-09-08T04:20:13;5.57;;;5.07;;
61590;SDS011;71994;52.410;-1.966;2023-09-08T04:23:21;6.00;;;5.40;;
61590;SDS011;71994;52.410;-1.966;2023-09-08T04:26:30;6.10;;;5.17;;
61590;SDS011;71994;52.410;-1.966;2023-09-08T04:29:36;5.93;;;5.32;;
61590;SDS011;71994;52.410;-1.966;2023-09-08T04:32:45;6.15;;;5.10;;
61590;SDS011;71994;52.410;-1.966;2023-09-08T04:35:51;5.47;;;4.97;;
61590;SDS011;71994;52.410;-1.966;2023-09-08T04:38:57;5.60;;;5.10;;
61590;SDS011;71994;52.410;-1.966;2023-09-08T04:42:05;5.50;;;5.00;;
61590;SDS011;71994;52.410;-1.966;2023-09-08T04:45:11;5.97;;;5.38;;
61590;SDS011;71994;52.410;-1.966;2023-09-08T04:48:20;5.80;;;5.30;;
61590;SDS011;71994;52.410;-1.966;2023-09-08T04:51:27;5.83;;;5.33;;
61590;SDS011;71994;52.410;-1.966;2023-09-08T04:54:33;6.07;;;5.47;;
61590;SDS011;71994;52.410;-1.966;2023-09-08T04:57:39;6.18;;;5.57;;
61590;SDS011;71994;52.410;-1.966;2023-09-08T05:00:45;5.60;;;5.10;;
61590;SDS011;71994;52.410;-1.966;2023-09-08T05:03:54;5.93;;;5.32;;
61590;SDS011;71994;52.410;-1.966;2023-09-08T05:07:00;6.97;;;5.30;;
61590;SDS011;71994;52.410;-1.966;2023-09-08T05:10:07;6.95;;;5.53;;
61590;SDS011;71994;52.410;-1.966;2023-09-08T05:13:16;5.82;;;5.32;;
61590;SDS011;71994;52.410;-1.966;2023-09-08T05:16:24;5.88;;;5.38;;
61590;SDS011;71994;52.410;-1.966;2023-09-08T05:19:42;5.85;;;5.32;;
61590;SDS011;71994;52.410;-1.966;2023-09-08T05:22:51;5.90;;;5.40;;
61590;SDS011;71994;52.410;-1.966;2023-09-08T05:25:57;6.32;;;5.72;;
61590;SDS011;71994;52.410;-1.966;2023-09-08T05:29:03;6.20;;;5.40;;
61590;SDS011;71994;52.410;-1.966;2023-09-08T05:32:12;6.00;;;5.40;;
61590;SDS011;71994;52.410;-1.966;2023-09-08T05:35:21;6.00;;;5.40;;
61590;SDS011;71994;52.410;-1.966;2023-09-08T05:38:28;6.00;;;5.47;;
61590;SDS011;71994;52.410;-1.966;2023-09-08T05:41:34;6.47;;;5.55;;
61590;SDS011;71994;52.410;-1.966;2023-09-08T05:44:40;6.25;;;5.60;;
61590;SDS011;71994;52.410;-1.966;2023-09-08T05:47:47;6.20;;;5.60;;
61590;SDS011;71994;52.410;-1.966;2023-09-08T05:51:02;6.07;;;5.47;;
61590;SDS011;71994;52.410;-1.966;2023-09-08T05:54:09;6.07;;;5.47;;
61590;SDS011;71994;52.410;-1.966;2023-09-08T05:57:15;6.07;;;5.47;;
61590;SDS011;71994;52.410;-1.966;2023-09-08T06:00:21;6.47;;;5.63;;
61590;SDS011;71994;52.410;-1.966;2023-09-08T06:03:28;5.80;;;5.20;;
61590;SDS011;71994;52.410;-1.966;2023-09-08T06:06:37;6.05;;;5.40;;
61590;SDS011;71994;52.410;-1.966;2023-09-08T06:09:46;6.00;;;5.40;;
61590;SDS011;71994;52.410;-1.966;2023-09-08T06:12:53;5.90;;;5.35;;
61590;SDS011;71994;52.410;-1.966;2023-09-08T06:16:03;6.13;;;5.53;;
61590;SDS011;71994;52.410;-1.966;2023-09-08T06:19:11;6.43;;;5.82;;
61590;SDS011;71994;52.410;-1.966;2023-09-08T06:22:23;5.57;;;5.07;;
61590;SDS011;71994;52.410;-1.966;2023-09-08T06:25:32;6.10;;;5.50;;
61590;SDS011;71994;52.410;-1.966;2023-09-08T06:28:38;5.90;;;5.40;;
61590;SDS011;71994;52.410;-1.966;2023-09-08T06:31:45;6.20;;;5.60;;
61590;SDS011;71994;52.410;-1.966;2023-09-08T06:34:52;5.68;;;5.18;;
61590;SDS011;71994;52.410;-1.966;2023-09-08T06:38:01;5.82;;;5.22;;
61590;SDS011;71994;52.410;-1.966;2023-09-08T06:41:10;5.88;;;5.00;;
61590;SDS011;71994;52.410;-1.966;2023-09-08T06:44:16;6.05;;;5.55;;
61590;SDS011;71994;52.410;-1.966;2023-09-08T06:47:25;7.05;;;5.55;;
61590;SDS011;71994;52.410;-1.966;2023-09-08T06:50:31;6.50;;;5.65;;
61590;SDS011;71994;52.410;-1.966;2023-09-08T06:53:42;6.20;;;5.50;;
61590;SDS011;71994;52.410;-1.966;2023-09-08T06:56:48;5.43;;;4.75;;
61590;SDS011;71994;52.410;-1.966;2023-09-08T06:59:55;7.00;;;5.38;;
61590;SDS011;71994;52.410;-1.966;2023-09-08T07:03:03;6.88;;;5.30;;
61590;SDS011;71994;52.410;-1.966;2023-09-08T07:06:10;6.22;;;5.57;;
61590;SDS011;71994;52.410;-1.966;2023-09-08T07:09:19;5.75;;;5.18;;
61590;SDS011;71994;52.410;-1.966;2023-09-08T07:12:25;5.57;;;5.03;;
61590;SDS011;71994;52.410;-1.966;2023-09-08T07:15:32;5.75;;;5.15;;
61590;SDS011;71994;52.410;-1.966;2023-09-08T07:18:38;6.60;;;5.85;;
61590;SDS011;71994;52.410;-1.966;2023-09-08T07:21:44;6.22;;;5.55;;
61590;SDS011;71994;52.410;-1.966;2023-09-08T07:24:55;6.05;;;5.45;;
61590;SDS011;71994;52.410;-1.966;2023-09-08T07:28:01;6.82;;;5.70;;
61590;SDS011;71994;52.410;-1.966;2023-09-08T07:31:07;6.07;;;5.47;;
61590;SDS011;71994;52.410;-1.966;2023-09-08T07:34:14;6.15;;;5.55;;
61590;SDS011;71994;52.410;-1.966;2023-09-08T07:37:20;6.38;;;5.60;;
61590;SDS011;71994;52.410;-1.966;2023-09-08T07:40:32;5.70;;;5.10;;
61590;SDS011;71994;52.410;-1.966;2023-09-08T07:43:40;6.20;;;5.60;;
61590;SDS011;71994;52.410;-1.966;2023-09-08T07:46:48;6.88;;;5.53;;
61590;SDS011;71994;52.410;-1.966;2023-09-08T07:50:15;6.38;;;5.40;;
61590;SDS011;71994;52.410;-1.966;2023-09-08T07:53:25;7.32;;;5.45;;
61590;SDS011;71994;52.410;-1.966;2023-09-08T07:56:36;7.50;;;5.85;;
61590;SDS011;71994;52.410;-1.966;2023-09-08T07:59:43;6.60;;;5.65;;
61590;SDS011;71994;52.410;-1.966;2023-09-08T08:02:49;6.63;;;6.03;;
61590;SDS011;71994;52.410;-1.966;2023-09-08T08:05:57;6.35;;;5.68;;
61590;SDS011;71994;52.410;-1.966;2023-09-08T08:09:03;6.50;;;5.90;;
61590;SDS011;71994;52.410;-1.966;2023-09-08T08:12:12;6.57;;;5.93;;
61590;SDS011;71994;52.410;-1.966;2023-09-08T08:15:34;6.63;;;6.03;;
61590;SDS011;71994;52.410;-1.966;2023-09-08T08:18:41;6.22;;;5.63;;
61590;SDS011;71994;52.410;-1.966;2023-09-08T08:21:47;6.30;;;5.70;;
61590;SDS011;71994;52.410;-1.966;2023-09-08T08:24:53;6.88;;;5.60;;
61590;SDS011;71994;52.410;-1.966;2023-09-08T08:28:02;8.27;;;6.10;;
61590;SDS011;71994;52.410;-1.966;2023-09-08T08:31:09;6.90;;;5.45;;
61590;SDS011;71994;52.410;-1.966;2023-09-08T08:34:15;6.13;;;5.53;;
61590;SDS011;71994;52.410;-1.966;2023-09-08T08:37:22;6.00;;;5.40;;
61590;SDS011;71994;52.410;-1.966;2023-09-08T08:40:28;6.53;;;5.72;;
61590;SDS011;71994;52.410;-1.966;2023-09-08T08:46:49;6.43;;;5.78;;
61590;SDS011;71994;52.410;-1.966;2023-09-08T08:49:57;7.43;;;5.63;;
61590;SDS011;71994;52.410;-1.966;2023-09-08T08:53:04;6.30;;;5.60;;
61590;SDS011;71994;52.410;-1.966;2023-09-08T08:56:10;5.95;;;5.35;;
61590;SDS011;71994;52.410;-1.966;2023-09-08T08:59:19;7.47;;;5.88;;
61590;SDS011;71994;52.410;-1.966;2023-09-08T09:02:25;6.30;;;5.70;;
61590;SDS011;71994;52.410;-1.966;2023-09-08T09:05:34;6.35;;;5.70;;
61590;SDS011;71994;52.410;-1.966;2023-09-08T09:08:44;8.30;;;6.32;;
61590;SDS011;71994;52.410;-1.966;2023-09-08T09:11:50;7.82;;;5.50;;
61590;SDS011;71994;52.410;-1.966;2023-09-08T09:15:00;6.82;;;5.93;;
61590;SDS011;71994;52.410;-1.966;2023-09-08T09:18:07;6.35;;;5.65;;
61590;SDS011;71994;52.410;-1.966;2023-09-08T09:21:14;6.93;;;5.57;;
61590;SDS011;71994;52.410;-1.966;2023-09-08T09:24:28;6.35;;;5.70;;
61590;SDS011;71994;52.410;-1.966;2023-09-08T09:27:37;6.60;;;5.60;;
61590;SDS011;71994;52.410;-1.966;2023-09-08T09:30:51;7.50;;;5.75;;
61590;SDS011;71994;52.410;-1.966;2023-09-08T09:34:03;7.40;;;6.20;;
61590;SDS011;71994;52.410;-1.966;2023-09-08T09:37:10;6.75;;;6.05;;
61590;SDS011;71994;52.410;-1.966;2023-09-08T09:40:16;6.07;;;5.30;;
61590;SDS011;71994;52.410;-1.966;2023-09-08T09:43:23;6.15;;;5.30;;
61590;SDS011;71994;52.410;-1.966;2023-09-08T09:46:32;6.30;;;5.70;;
61590;SDS011;71994;52.410;-1.966;2023-09-08T09:49:41;6.70;;;5.65;;
61590;SDS011;71994;52.410;-1.966;2023-09-08T09:52:48;6.80;;;6.10;;
61590;SDS011;71994;52.410;-1.966;2023-09-08T09:55:55;6.95;;;5.70;;
61590;SDS011;71994;52.410;-1.966;2023-09-08T09:59:02;6.78;;;5.38;;
61590;SDS011;71994;52.410;-1.966;2023-09-08T10:02:16;6.40;;;5.80;;
61590;SDS011;71994;52.410;-1.966;2023-09-08T10:05:24;6.38;;;5.70;;
61590;SDS011;71994;52.410;-1.966;2023-09-08T10:08:33;6.40;;;5.70;;
61590;SDS011;71994;52.410;-1.966;2023-09-08T10:14:48;6.25;;;5.65;;
61590;SDS011;71994;52.410;-1.966;2023-09-08T10:18:03;8.00;;;5.65;;
61590;SDS011;71994;52.410;-1.966;2023-09-08T10:21:10;6.30;;;5.28;;
61590;SDS011;71994;52.410;-1.966;2023-09-08T10:24:18;5.97;;;5.38;;
61590;SDS011;71994;52.410;-1.966;2023-09-08T10:27:29;6.03;;;5.32;;
61590;SDS011;71994;52.410;-1.966;2023-09-08T10:30:38;6.50;;;5.60;;
61590;SDS011;71994;52.410;-1.966;2023-09-08T10:33:48;5.80;;;5.20;;
61590;SDS011;71994;52.410;-1.966;2023-09-08T10:36:54;5.82;;;5.22;;
61590;SDS011;71994;52.410;-1.966;2023-09-08T10:43:36;6.03;;;5.43;;
61590;SDS011;71994;52.410;-1.966;2023-09-08T10:46:43;6.20;;;4.97;;
61590;SDS011;71994;52.410;-1.966;2023-09-08T10:49:53;6.30;;;5.70;;
61590;SDS011;71994;52.410;-1.966;2023-09-08T10:53:12;6.32;;;5.15;;
61590;SDS011;71994;52.410;-1.966;2023-09-08T10:56:19;5.95;;;5.35;;
61590;SDS011;71994;52.410;-1.966;2023-09-08T10:59:27;6.13;;;5.53;;
61590;SDS011;71994;52.410;-1.966;2023-09-08T11:02:34;5.93;;;5.40;;
61590;SDS011;71994;52.410;-1.966;2023-09-08T11:05:45;6.13;;;5.05;;
61590;SDS011;71994;52.410;-1.966;2023-09-08T11:08:51;9.63;;;5.60;;
61590;SDS011;71994;52.410;-1.966;2023-09-08T11:12:00;6.03;;;5.38;;
61590;SDS011;71994;52.410;-1.966;2023-09-08T11:15:10;6.13;;;5.53;;
61590;SDS011;71994;52.410;-1.966;2023-09-08T11:18:16;6.03;;;5.43;;
61590;SDS011;71994;52.410;-1.966;2023-09-08T11:21:26;6.65;;;5.38;;
61590;SDS011;71994;52.410;-1.966;2023-09-08T11:24:37;5.55;;;4.90;;
61590;SDS011;71994;52.410;-1.966;2023-09-08T11:27:44;6.18;;;5.30;;
61590;SDS011;71994;52.410;-1.966;2023-09-08T11:30:52;5.70;;;5.20;;
61590;SDS011;71994;52.410;-1.966;2023-09-08T11:34:00;5.93;;;5.32;;
61590;SDS011;71994;52.410;-1.966;2023-09-08T11:37:11;5.72;;;5.22;;
61590;SDS011;71994;52.410;-1.966;2023-09-08T11:40:20;5.80;;;5.20;;
61590;SDS011;71994;52.410;-1.966;2023-09-08T11:43:29;10.43;;;5.50;;
61590;SDS011;71994;52.410;-1.966;2023-09-08T11:46:37;7.32;;;5.57;;
61590;SDS011;71994;52.410;-1.966;2023-09-08T11:49:45;7.60;;;5.50;;
61590;SDS011;71994;52.410;-1.966;2023-09-08T11:52:57;5.72;;;5.20;;
61590;SDS011;71994;52.410;-1.966;2023-09-08T11:56:05;5.78;;;5.20;;
61590;SDS011;71994;52.410;-1.966;2023-09-08T11:59:12;7.25;;;5.25;;
61590;SDS011;71994;52.410;-1.966;2023-09-08T12:02:21;5.68;;;5.18;;
61590;SDS011;71994;52.410;-1.966;2023-09-08T12:05:28;6.18;;;5.07;;
61590;SDS011;71994;52.410;-1.966;2023-09-08T12:08:37;6.00;;;5.22;;
61590;SDS011;71994;52.410;-1.966;2023-09-08T12:11:43;5.65;;;5.15;;
61590;SDS011;71994;52.410;-1.966;2023-09-08T12:14:50;8.10;;;5.35;;
61590;SDS011;71994;52.410;-1.966;2023-09-08T12:18:01;7.53;;;5.07;;
61590;SDS011;71994;52.410;-1.966;2023-09-08T12:21:12;5.82;;;5.22;;
61590;SDS011;71994;52.410;-1.966;2023-09-08T12:24:22;5.50;;;5.00;;
61590;SDS011;71994;52.410;-1.966;2023-09-08T12:27:54;5.75;;;5.15;;
61590;SDS011;71994;52.410;-1.966;2023-09-08T12:31:00;5.25;;;4.75;;
61590;SDS011;71994;52.410;-1.966;2023-09-08T12:34:07;5.85;;;5.25;;
61590;SDS011;71994;52.410;-1.966;2023-09-08T12:37:19;5.80;;;5.13;;
61590;SDS011;71994;52.410;-1.966;2023-09-08T12:40:29;5.95;;;4.90;;
61590;SDS011;71994;52.410;-1.966;2023-09-08T12:43:38;6.32;;;5.07;;
61590;SDS011;71994;52.410;-1.966;2023-09-08T12:46:45;6.03;;;5.43;;
61590;SDS011;71994;52.410;-1.966;2023-09-08T12:49:52;6.07;;;5.10;;
61590;SDS011;71994;52.410;-1.966;2023-09-08T12:52:58;5.80;;;5.30;;
61590;SDS011;71994;52.410;-1.966;2023-09-08T12:56:08;5.95;;;5.07;;
61590;SDS011;71994;52.410;-1.966;2023-09-08T12:59:14;5.57;;;4.97;;
61590;SDS011;71994;52.410;-1.966;2023-09-08T13:02:20;5.68;;;5.10;;
61590;SDS011;71994;52.410;-1.966;2023-09-08T13:05:27;6.07;;;4.90;;
61590;SDS011;71994;52.410;-1.966;2023-09-08T13:08:33;5.75;;;4.72;;
61590;SDS011;71994;52.410;-1.966;2023-09-08T13:11:42;5.72;;;5.07;;
61590;SDS011;71994;52.410;-1.966;2023-09-08T13:14:48;6.05;;;5.45;;
61590;SDS011;71994;52.410;-1.966;2023-09-08T13:17:55;5.55;;;4.88;;
61590;SDS011;71994;52.410;-1.966;2023-09-08T13:21:04;5.60;;;5.10;;
61590;SDS011;71994;52.410;-1.966;2023-09-08T13:24:10;5.88;;;5.20;;
61590;SDS011;71994;52.410;-1.966;2023-09-08T13:27:19;5.97;;;5.30;;
61590;SDS011;71994;52.410;-1.966;2023-09-08T13:30:26;6.00;;;5.20;;
61590;SDS011;71994;52.410;-1.966;2023-09-08T13:33:32;5.75;;;5.18;;
61590;SDS011;71994;52.410;-1.966;2023-09-08T13:36:41;5.43;;;4.93;;
61590;SDS011;71994;52.410;-1.966;2023-09-08T13:39:50;6.28;;;5.10;;
61590;SDS011;71994;52.410;-1.966;2023-09-08T13:43:03;5.45;;;4.93;;
61590;SDS011;71994;52.410;-1.966;2023-09-08T13:46:12;5.78;;;5.18;;
61590;SDS011;71994;52.410;-1.966;2023-09-08T13:49:21;5.72;;;5.22;;
61590;SDS011;71994;52.410;-1.966;2023-09-08T13:52:34;5.60;;;5.03;;
61590;SDS011;71994;52.410;-1.966;2023-09-08T13:55:41;5.60;;;5.10;;
61590;SDS011;71994;52.410;-1.966;2023-09-08T13:58:51;5.90;;;5.30;;
61590;SDS011;71994;52.410;-1.966;2023-09-08T14:01:59;5.47;;;4.97;;
61590;SDS011;71994;52.410;-1.966;2023-09-08T14:05:09;5.90;;;5.00;;
61590;SDS011;71994;52.410;-1.966;2023-09-08T14:08:17;5.32;;;4.82;;
61590;SDS011;71994;52.410;-1.966;2023-09-08T14:11:24;5.35;;;4.85;;
61590;SDS011;71994;52.410;-1.966;2023-09-08T14:14:34;5.65;;;4.88;;
61590;SDS011;71994;52.410;-1.966;2023-09-08T14:17:43;5.43;;;4.82;;
61590;SDS011;71994;52.410;-1.966;2023-09-08T14:20:56;5.38;;;4.88;;
61590;SDS011;71994;52.410;-1.966;2023-09-08T14:24:05;5.43;;;4.93;;
61590;SDS011;71994;52.410;-1.966;2023-09-08T14:27:11;5.55;;;5.05;;
61590;SDS011;71994;52.410;-1.966;2023-09-08T14:30:21;5.40;;;4.90;;
61590;SDS011;71994;52.410;-1.966;2023-09-08T14:33:27;5.20;;;4.68;;
61590;SDS011;71994;52.410;-1.966;2023-09-08T14:36:33;5.93;;;5.03;;
61590;SDS011;71994;52.410;-1.966;2023-09-08T14:39:40;4.97;;;4.57;;
61590;SDS011;71994;52.410;-1.966;2023-09-08T14:42:46;5.22;;;4.72;;
61590;SDS011;71994;52.410;-1.966;2023-09-08T14:45:55;6.35;;;5.10;;
61590;SDS011;71994;52.410;-1.966;2023-09-08T14:49:04;6.22;;;5.03;;
61590;SDS011;71994;52.410;-1.966;2023-09-08T14:52:10;5.20;;;4.70;;
61590;SDS011;71994;52.410;-1.966;2023-09-08T14:55:21;5.93;;;5.05;;
61590;SDS011;71994;52.410;-1.966;2023-09-08T14:58:27;5.97;;;4.88;;
61590;SDS011;71994;52.410;-1.966;2023-09-08T15:01:39;5.45;;;4.75;;
61590;SDS011;71994;52.410;-1.966;2023-09-08T15:04:49;5.13;;;4.63;;
61590;SDS011;71994;52.410;-1.966;2023-09-08T15:07:59;6.75;;;4.65;;
61590;SDS011;71994;52.410;-1.966;2023-09-08T15:11:27;5.32;;;4.80;;
61590;SDS011;71994;52.410;-1.966;2023-09-08T15:19:43;5.47;;;4.72;;
61590;SDS011;71994;52.410;-1.966;2023-09-08T15:23:09;6.18;;;5.28;;
61590;SDS011;71994;52.410;-1.966;2023-09-08T15:26:15;4.90;;;4.40;;
61590;SDS011;71994;52.410;-1.966;2023-09-08T15:29:21;5.07;;;4.65;;
61590;SDS011;71994;52.410;-1.966;2023-09-08T15:32:31;5.05;;;4.63;;
61590;SDS011;71994;52.410;-1.966;2023-09-08T15:35:41;5.13;;;4.63;;
61590;SDS011;71994;52.410;-1.966;2023-09-08T15:38:52;5.57;;;4.43;;
61590;SDS011;71994;52.410;-1.966;2023-09-08T15:41:58;5.28;;;4.78;;
61590;SDS011;71994;52.410;-1.966;2023-09-08T15:45:06;6.75;;;4.65;;
61590;SDS011;71994;52.410;-1.966;2023-09-08T15:48:13;5.25;;;4.75;;
61590;SDS011;71994;52.410;-1.966;2023-09-08T15:51:25;5.40;;;4.90;;
61590;SDS011;71994;52.410;-1.966;2023-09-08T15:54:42;8.48;;;4.75;;
61590;SDS011;71994;52.410;-1.966;2023-09-08T15:57:53;4.95;;;4.40;;
61590;SDS011;71994;52.410;-1.966;2023-09-08T16:01:03;6.50;;;4.88;;
61590;SDS011;71994;52.410;-1.966;2023-09-08T16:04:31;5.70;;;4.55;;
61590;SDS011;71994;52.410;-1.966;2023-09-08T16:07:40;4.88;;;4.30;;
61590;SDS011;71994;52.410;-1.966;2023-09-08T16:10:48;5.88;;;4.78;;
61590;SDS011;71994;52.410;-1.966;2023-09-08T16:14:11;5.15;;;4.60;;
61590;SDS011;71994;52.410;-1.966;2023-09-08T16:17:33;6.45;;;4.90;;
61590;SDS011;71994;52.410;-1.966;2023-09-08T16:24:05;5.70;;;4.50;;
61590;SDS011;71994;52.410;-1.966;2023-09-08T16:27:17;6.15;;;5.00;;
61590;SDS011;71994;52.410;-1.966;2023-09-08T16:30:24;8.82;;;5.20;;
61590;SDS011;71994;52.410;-1.966;2023-09-08T16:33:32;9.52;;;5.15;;
61590;SDS011;71994;52.410;-1.966;2023-09-08T16:36:39;7.65;;;4.95;;
61590;SDS011;71994;52.410;-1.966;2023-09-08T16:39:51;7.37;;;4.87;;
61590;SDS011;71994;52.410;-1.966;2023-09-08T16:42:59;28.08;;;5.75;;
61590;SDS011;71994;52.410;-1.966;2023-09-08T16:46:07;21.88;;;7.60;;
61590;SDS011;71994;52.410;-1.966;2023-09-08T16:49:24;14.45;;;7.40;;
61590;SDS011;71994;52.410;-1.966;2023-09-08T16:52:47;19.60;;;7.05;;
61590;SDS011;71994;52.410;-1.966;2023-09-08T16:56:00;25.98;;;9.57;;
61590;SDS011;71994;52.410;-1.966;2023-09-08T16:59:19;27.08;;;9.38;;
61590;SDS011;71994;52.410;-1.966;2023-09-08T17:02:26;26.45;;;10.95;;
61590;SDS011;71994;52.410;-1.966;2023-09-08T17:05:32;32.28;;;10.65;;
61590;SDS011;71994;52.410;-1.966;2023-09-08T17:08:39;34.38;;;10.77;;
61590;SDS011;71994;52.410;-1.966;2023-09-08T17:12:06;26.90;;;10.98;;
61590;SDS011;71994;52.410;-1.966;2023-09-08T17:15:12;25.45;;;10.45;;
61590;SDS011;71994;52.410;-1.966;2023-09-08T17:18:23;24.38;;;9.95;;
61590;SDS011;71994;52.410;-1.966;2023-09-08T17:21:32;21.38;;;10.38;;
61590;SDS011;71994;52.410;-1.966;2023-09-08T17:24:41;23.65;;;10.45;;
61590;SDS011;71994;52.410;-1.966;2023-09-08T17:27:57;23.63;;;10.57;;
61590;SDS011;71994;52.410;-1.966;2023-09-08T17:31:06;25.30;;;11.27;;
61590;SDS011;71994;52.410;-1.966;2023-09-08T17:34:18;26.38;;;11.07;;
61590;SDS011;71994;52.410;-1.966;2023-09-08T17:37:38;18.38;;;9.82;;
61590;SDS011;71994;52.410;-1.966;2023-09-08T17:41:00;24.42;;;10.52;;
61590;SDS011;71994;52.410;-1.966;2023-09-08T17:44:09;25.92;;;10.32;;
61590;SDS011;71994;52.410;-1.966;2023-09-08T17:47:15;19.35;;;10.35;;
61590;SDS011;71994;52.410;-1.966;2023-09-08T17:50:22;22.45;;;10.43;;
61590;SDS011;71994;52.410;-1.966;2023-09-08T17:53:36;22.75;;;9.32;;
61590;SDS011;71994;52.410;-1.966;2023-09-08T17:56:56;22.88;;;10.07;;
61590;SDS011;71994;52.410;-1.966;2023-09-08T18:00:11;22.52;;;10.30;;
61590;SDS011;71994;52.410;-1.966;2023-09-08T18:03:18;20.02;;;9.85;;
61590;SDS011;71994;52.410;-1.966;2023-09-08T18:06:24;21.73;;;9.90;;
61590;SDS011;71994;52.410;-1.966;2023-09-08T18:09:30;22.27;;;9.90;;
61590;SDS011;71994;52.410;-1.966;2023-09-08T18:12:38;19.60;;;9.45;;
61590;SDS011;71994;52.410;-1.966;2023-09-08T18:15:47;18.70;;;10.00;;
61590;SDS011;71994;52.410;-1.966;2023-09-08T18:19:01;17.73;;;9.60;;
61590;SDS011;71994;52.410;-1.966;2023-09-08T18:22:07;17.60;;;9.23;;
61590;SDS011;71994;52.410;-1.966;2023-09-08T18:25:14;22.63;;;9.07;;
61590;SDS011;71994;52.410;-1.966;2023-09-08T18:28:20;17.50;;;9.27;;
61590;SDS011;71994;52.410;-1.966;2023-09-08T18:31:29;17.83;;;9.15;;
61590;SDS011;71994;52.410;-1.966;2023-09-08T18:34:36;19.17;;;9.38;;
61590;SDS011;71994;52.410;-1.966;2023-09-08T18:37:44;14.90;;;8.98;;
61590;SDS011;71994;52.410;-1.966;2023-09-08T18:40:51;17.40;;;8.98;;
61590;SDS011;71994;52.410;-1.966;2023-09-08T18:44:00;18.15;;;9.60;;
61590;SDS011;71994;52.410;-1.966;2023-09-08T18:50:36;18.67;;;8.75;;
61590;SDS011;71994;52.410;-1.966;2023-09-08T18:53:44;16.10;;;9.02;;
61590;SDS011;71994;52.410;-1.966;2023-09-08T18:56:51;17.63;;;8.63;;
61590;SDS011;71994;52.410;-1.966;2023-09-08T19:00:01;14.45;;;8.50;;